Time;durP1;ratioP1;P1;durP2;ratioP2;P2;SDS_P1;SDS_P2;PMS_P1;PMS_P2;Temp;Humidity;BMP_temperature;BMP_pressure;BME280_temperature;BME280_humidity;BME280_pressure;Samples;Min_cycle;Max_cycle;Signal;HPM_P1;HPM_P2
2021/11/06 00:00:40;;;;;;;16.97;11.80;;;4.10;99.90;;;;;;5033211;28;20021;-76
2021/11/06 00:03:06;;;;;;;16.30;10.57;;;4.10;99.90;;;;;;5033393;28;20029;-76
2021/11/06 00:05:33;;;;;;;16.33;11.47;;;4.10;99.90;;;;;;5032931;28;20489;-76
2021/11/06 00:07:58;;;;;;;16.67;11.30;;;4.10;99.90;;;;;;5033105;28;20691;-76
2021/11/06 00:10:25;;;;;;;15.37;11.03;;;4.10;99.90;;;;;;5032930;28;20025;-76
2021/11/06 00:12:50;;;;;;;14.53;9.77;;;4.10;99.90;;;;;;5033125;28;20061;-76
2021/11/06 00:15:16;;;;;;;15.10;10.17;;;4.10;99.90;;;;;;5032814;28;20056;-76
2021/11/06 00:17:42;;;;;;;13.73;10.77;;;4.10;99.90;;;;;;5033185;28;20103;-76
2021/11/06 00:20:09;;;;;;;14.10;10.33;;;4.10;99.90;;;;;;5032810;28;20098;-76
2021/11/06 00:22:35;;;;;;;12.80;10.40;;;4.10;99.90;;;;;;5032497;28;20021;-76
2021/11/06 00:25:03;;;;;;;14.97;10.13;;;4.10;99.90;;;;;;5032875;28;20523;-76
2021/11/06 00:27:29;;;;;;;13.23;9.20;;;4.10;99.90;;;;;;5019139;28;20026;-76
2021/11/06 00:29:54;;;;;;;13.67;10.27;;;4.10;99.90;;;;;;5032922;28;20056;-75
2021/11/06 00:32:20;;;;;;;13.57;9.90;;;4.10;99.90;;;;;;5033137;28;20014;-75
2021/11/06 00:34:46;;;;;;;13.93;9.73;;;4.10;99.90;;;;;;5031335;28;20036;-75
2021/11/06 00:37:12;;;;;;;13.80;10.17;;;4.10;99.90;;;;;;5032445;28;20029;-75
2021/11/06 00:39:37;;;;;;;15.23;10.03;;;4.10;99.90;;;;;;5032391;28;20542;-75
2021/11/06 00:42:03;;;;;;;12.37;8.97;;;4.10;99.90;;;;;;5032613;28;20405;-76
2021/11/06 00:44:29;;;;;;;13.17;9.77;;;4.10;99.90;;;;;;5031234;28;20126;-75
2021/11/06 00:46:57;;;;;;;13.17;9.37;;;4.10;99.90;;;;;;5032405;28;20057;-76
2021/11/06 00:49:23;;;;;;;14.00;9.73;;;4.10;99.90;;;;;;5030902;28;20045;-76
2021/11/06 00:51:49;;;;;;;16.33;10.37;;;4.00;99.90;;;;;;5032452;28;20500;-76
2021/11/06 00:54:15;;;;;;;12.67;9.43;;;4.00;99.90;;;;;;5032078;28;20029;-75
2021/11/06 00:56:40;;;;;;;12.27;9.00;;;4.10;99.90;;;;;;5032054;28;20060;-75
2021/11/06 00:59:06;;;;;;;15.47;10.03;;;4.00;99.90;;;;;;5047310;28;20478;-75
2021/11/06 01:01:32;;;;;;;13.30;9.70;;;4.00;99.90;;;;;;5031848;28;20029;-76
2021/11/06 01:03:58;;;;;;;14.70;10.07;;;4.10;99.90;;;;;;5031705;28;20017;-76
2021/11/06 01:06:24;;;;;;;16.20;10.10;;;4.10;99.90;;;;;;5031564;28;20025;-76
2021/11/06 01:08:50;;;;;;;15.27;10.60;;;4.00;99.90;;;;;;5031299;28;20340;-76
2021/11/06 01:11:16;;;;;;;13.30;10.17;;;4.00;99.90;;;;;;5031384;28;20026;-76
2021/11/06 01:13:41;;;;;;;14.73;9.87;;;4.00;99.90;;;;;;5031466;28;20025;-76
2021/11/06 01:16:07;;;;;;;15.23;10.27;;;4.00;99.90;;;;;;5031504;28;20025;-76
2021/11/06 01:18:33;;;;;;;15.23;10.57;;;4.00;99.90;;;;;;5031593;28;20033;-76
2021/11/06 01:20:58;;;;;;;13.57;10.10;;;4.10;99.90;;;;;;5031924;28;20104;-76
2021/11/06 01:23:25;;;;;;;11.57;9.57;;;4.00;99.90;;;;;;5031549;28;20030;-76
2021/11/06 01:25:51;;;;;;;14.63;10.10;;;4.10;99.90;;;;;;5031385;28;20033;-76
2021/11/06 01:28:17;;;;;;;12.73;9.50;;;4.00;99.90;;;;;;5031735;28;20028;-76
2021/11/06 01:30:42;;;;;;;12.90;10.43;;;4.00;99.90;;;;;;5031384;28;20028;-76
2021/11/06 01:33:08;;;;;;;14.20;9.17;;;4.00;99.90;;;;;;5029697;28;20025;-76
2021/11/06 01:35:34;;;;;;;10.87;9.20;;;4.00;99.90;;;;;;5031588;28;20037;-76
2021/11/06 01:38:00;;;;;;;12.53;9.33;;;4.00;99.90;;;;;;5031654;28;20331;-76
2021/11/06 01:40:26;;;;;;;12.57;9.30;;;4.00;99.90;;;;;;5031124;28;20072;-76
2021/11/06 01:42:52;;;;;;;11.97;9.33;;;4.00;99.90;;;;;;5030156;28;20026;-75
2021/11/06 01:45:20;;;;;;;13.63;9.93;;;4.10;99.90;;;;;;5031285;28;20124;-76
2021/11/06 01:47:46;;;;;;;12.70;9.83;;;4.00;99.90;;;;;;5030912;28;20022;-76
2021/11/06 01:50:13;;;;;;;13.90;9.80;;;4.00;99.90;;;;;;5031193;28;20056;-76
2021/11/06 01:52:38;;;;;;;12.73;9.70;;;4.00;99.90;;;;;;5030886;28;20474;-76
2021/11/06 01:55:06;;;;;;;12.63;9.13;;;4.00;99.90;;;;;;5031300;28;20022;-76
2021/11/06 01:57:32;;;;;;;15.50;9.77;;;4.10;99.90;;;;;;5031027;28;20029;-76
2021/11/06 01:59:57;;;;;;;13.63;8.77;;;4.00;99.90;;;;;;5046182;28;20025;-76
2021/11/06 02:02:24;;;;;;;12.47;9.23;;;4.00;99.90;;;;;;5030886;28;20455;-76
2021/11/06 02:04:50;;;;;;;11.83;9.63;;;4.00;99.90;;;;;;5029416;28;20031;-76
2021/11/06 02:07:15;;;;;;;13.63;8.90;;;4.00;99.90;;;;;;5030947;28;20056;-76
2021/11/06 02:09:41;;;;;;;13.57;8.90;;;4.00;99.90;;;;;;5030941;28;20068;-76
2021/11/06 02:12:08;;;;;;;11.90;8.83;;;4.00;99.90;;;;;;5030752;28;20033;-76
2021/11/06 02:14:34;;;;;;;11.93;9.10;;;4.00;99.90;;;;;;5030646;28;20036;-76
2021/11/06 02:16:59;;;;;;;12.70;9.53;;;4.00;99.90;;;;;;5030639;28;20026;-76
2021/11/06 02:19:27;;;;;;;11.07;8.70;;;4.00;99.90;;;;;;5029675;28;20095;-76
2021/11/06 02:21:55;;;;;;;10.27;8.30;;;4.00;99.90;;;;;;5030414;28;20072;-76
2021/11/06 02:24:20;;;;;;;10.17;8.03;;;4.00;99.90;;;;;;5030567;28;20032;-76
2021/11/06 02:26:47;;;;;;;10.77;8.67;;;3.90;99.90;;;;;;5030473;28;20025;-76
2021/11/06 02:29:13;;;;;;;11.70;9.13;;;3.90;99.90;;;;;;5029392;28;20021;-76
2021/11/06 02:31:39;;;;;;;11.47;9.53;;;3.80;99.90;;;;;;5030707;28;20029;-76
2021/11/06 02:34:06;;;;;;;14.40;9.17;;;3.90;99.90;;;;;;5030464;28;20018;-76
2021/11/06 02:36:32;;;;;;;13.70;8.97;;;3.90;99.90;;;;;;5030631;28;20033;-76
2021/11/06 02:38:58;;;;;;;12.30;9.67;;;3.80;99.90;;;;;;5030490;28;20060;-76
2021/11/06 02:41:24;;;;;;;16.63;9.90;;;3.80;99.90;;;;;;5030460;28;20025;-76
2021/11/06 02:43:50;;;;;;;15.47;10.17;;;3.80;99.90;;;;;;5030753;28;20032;-76
2021/11/06 02:46:15;;;;;;;12.73;9.70;;;3.80;99.90;;;;;;5034285;28;20065;-76
2021/11/06 02:48:41;;;;;;;14.13;9.90;;;3.80;99.90;;;;;;5034317;28;20481;-76
2021/11/06 02:51:06;;;;;;;12.47;9.17;;;3.70;99.90;;;;;;5034307;28;20028;-76
2021/11/06 02:53:32;;;;;;;14.00;9.50;;;3.70;99.90;;;;;;5033981;28;20549;-76
2021/11/06 02:55:57;;;;;;;14.63;10.10;;;3.70;99.90;;;;;;5034391;28;20022;-76
2021/11/06 02:58:23;;;;;;;11.47;9.30;;;3.70;99.90;;;;;;5032697;28;20486;-76
2021/11/06 03:00:48;;;;;;;13.90;10.57;;;3.60;99.90;;;;;;5034180;28;20053;-76
2021/11/06 03:03:14;;;;;;;13.53;9.63;;;3.60;99.90;;;;;;5034103;28;20025;-76
2021/11/06 03:05:40;;;;;;;16.03;9.97;;;3.60;99.90;;;;;;5033951;28;20029;-76
2021/11/06 03:08:05;;;;;;;12.23;9.17;;;3.50;99.90;;;;;;5034030;28;20037;-76
2021/11/06 03:10:31;;;;;;;12.90;9.07;;;3.50;99.90;;;;;;5033719;28;20076;-76
2021/11/06 03:12:57;;;;;;;12.70;8.80;;;3.50;99.90;;;;;;5033925;28;20377;-75
2021/11/06 03:15:23;;;;;;;12.20;9.30;;;3.40;99.90;;;;;;5032050;28;20076;-75
2021/11/06 03:17:49;;;;;;;12.83;9.67;;;3.40;99.90;;;;;;5034055;28;20021;-75
2021/11/06 03:20:17;;;;;;;15.43;10.60;;;3.40;99.90;;;;;;5033843;28;20044;-75
2021/11/06 03:22:43;;;;;;;13.60;9.70;;;3.40;99.90;;;;;;5033424;28;20367;-76
2021/11/06 03:25:10;;;;;;;14.87;10.93;;;3.40;99.90;;;;;;5032366;28;20067;-76
2021/11/06 03:27:35;;;;;;;13.40;9.17;;;3.40;99.90;;;;;;5033409;28;20026;-75
2021/11/06 03:30:01;;;;;;;13.73;10.17;;;3.40;99.90;;;;;;5033807;28;20086;-75
2021/11/06 03:32:27;;;;;;;16.17;10.07;;;3.40;99.90;;;;;;5033123;28;20021;-75
2021/11/06 03:34:53;;;;;;;13.53;10.20;;;3.40;99.90;;;;;;5032742;28;20021;-75
2021/11/06 03:37:18;;;;;;;13.07;10.23;;;3.40;99.90;;;;;;5033217;28;20367;-75
2021/11/06 03:39:44;;;;;;;14.13;10.20;;;3.40;99.90;;;;;;5032015;28;20060;-75
2021/11/06 03:42:09;;;;;;;13.37;9.67;;;3.40;99.90;;;;;;5033459;28;20375;-75
2021/11/06 03:44:36;;;;;;;14.57;10.50;;;3.40;99.90;;;;;;5032887;28;20060;-75
2021/11/06 03:47:02;;;;;;;16.83;11.10;;;3.40;99.90;;;;;;5031807;28;20036;-75
2021/11/06 03:49:28;;;;;;;14.97;10.60;;;3.40;99.90;;;;;;5033287;28;20026;-75
2021/11/06 03:51:54;;;;;;;15.87;11.13;;;3.40;99.90;;;;;;5033148;28;20446;-76
2021/11/06 03:54:19;;;;;;;17.57;11.73;;;3.40;99.90;;;;;;5033543;28;20025;-75
2021/11/06 03:56:45;;;;;;;17.87;11.20;;;3.40;99.90;;;;;;5032632;28;20021;-76
2021/11/06 03:59:11;;;;;;;20.03;11.20;;;3.40;99.90;;;;;;5033079;28;20060;-74
2021/11/06 04:01:36;;;;;;;13.43;10.40;;;3.40;99.90;;;;;;5035024;28;20029;-74
2021/11/06 04:04:02;;;;;;;16.70;10.10;;;3.40;99.90;;;;;;5035214;28;20161;-74
2021/11/06 04:06:29;;;;;;;13.40;10.03;;;3.30;99.90;;;;;;5034907;28;20029;-75
2021/11/06 04:08:55;;;;;;;17.00;10.33;;;3.40;99.90;;;;;;5035172;28;20412;-75
2021/11/06 04:11:22;;;;;;;14.37;10.30;;;3.30;99.90;;;;;;5034956;28;20053;-75
2021/11/06 04:13:49;;;;;;;17.73;10.23;;;3.30;99.90;;;;;;5034778;28;20025;-74
2021/11/06 04:16:15;;;;;;;13.40;10.03;;;3.20;99.90;;;;;;5034869;28;20083;-74
2021/11/06 04:18:40;;;;;;;14.17;9.97;;;3.20;99.90;;;;;;5034757;28;20029;-74
2021/11/06 04:21:06;;;;;;;13.13;9.93;;;3.10;99.90;;;;;;5034681;28;20537;-74
2021/11/06 04:23:32;;;;;;;14.77;9.60;;;3.10;99.90;;;;;;5033628;28;20063;-74
2021/11/06 04:25:58;;;;;;;13.80;9.97;;;3.10;99.90;;;;;;5040560;28;20520;-74
2021/11/06 04:28:23;;;;;;;12.20;9.00;;;3.10;99.90;;;;;;5040902;28;20021;-75
2021/11/06 04:30:50;;;;;;;13.17;8.80;;;3.00;99.90;;;;;;5034654;28;20071;-74
2021/11/06 04:33:16;;;;;;;12.47;9.47;;;3.00;99.90;;;;;;5044410;28;20039;-74
2021/11/06 04:35:42;;;;;;;12.93;9.90;;;3.00;99.90;;;;;;5038220;28;20471;-74
2021/11/06 04:38:07;;;;;;;13.70;9.57;;;3.00;99.90;;;;;;5034315;28;20038;-74
2021/11/06 04:40:33;;;;;;;13.57;10.00;;;2.90;99.90;;;;;;5044797;28;20086;-74
2021/11/06 04:42:59;;;;;;;12.87;8.73;;;2.80;99.90;;;;;;5051865;28;20079;-74
2021/11/06 04:45:25;;;;;;;12.77;9.00;;;2.80;99.90;;;;;;5033077;28;20364;-74
2021/11/06 04:47:50;;;;;;;14.63;9.23;;;2.70;99.90;;;;;;5034403;28;20024;-75
2021/11/06 04:50:17;;;;;;;14.40;10.07;;;2.70;99.90;;;;;;5033923;28;20458;-75
2021/11/06 04:52:43;;;;;;;13.20;9.57;;;2.70;99.90;;;;;;5026871;28;20029;-75
2021/11/06 04:55:12;;;;;;;16.77;10.80;;;2.60;99.90;;;;;;5033917;28;20040;-75
2021/11/06 04:57:38;;;;;;;15.30;10.23;;;2.60;99.90;;;;;;5033947;28;20072;-75
2021/11/06 05:00:06;;;;;;;16.57;11.50;;;2.50;99.90;;;;;;5050740;28;20029;-75
2021/11/06 05:02:32;;;;;;;14.30;10.20;;;2.50;99.90;;;;;;5047874;28;20018;-74
2021/11/06 05:04:57;;;;;;;16.33;10.83;;;2.40;99.90;;;;;;5032292;28;20047;-77
2021/11/06 05:07:24;;;;;;;17.37;11.57;;;2.40;99.90;;;;;;5030922;28;20049;-77
2021/11/06 05:09:50;;;;;;;17.50;11.20;;;2.30;99.90;;;;;;5027129;28;20017;-77
2021/11/06 05:12:19;;;;;;;23.53;11.60;;;2.30;99.90;;;;;;5033414;28;20351;-77
2021/11/06 05:14:45;;;;;;;17.53;11.23;;;2.20;99.90;;;;;;5021390;28;20431;-77
2021/11/06 05:17:10;;;;;;;18.57;12.03;;;2.20;99.90;;;;;;5031422;28;20079;-77
2021/11/06 05:19:37;;;;;;;15.87;11.30;;;2.10;99.90;;;;;;5032169;28;20026;-77
2021/11/06 05:22:03;;;;;;;23.00;12.90;;;2.10;99.90;;;;;;5032849;28;20682;-78
2021/11/06 05:24:28;;;;;;;19.17;11.80;;;2.10;99.90;;;;;;5030653;28;20026;-78
2021/11/06 05:26:54;;;;;;;22.87;12.97;;;2.00;99.90;;;;;;5030035;28;20021;-78
2021/11/06 05:29:20;;;;;;;18.73;13.77;;;2.00;99.90;;;;;;5031249;28;20101;-80
2021/11/06 05:31:46;;;;;;;25.50;13.53;;;2.00;99.90;;;;;;5043347;28;20029;-77
2021/11/06 05:34:11;;;;;;;19.50;12.43;;;1.90;99.90;;;;;;5033433;28;20474;-77
2021/11/06 05:36:37;;;;;;;22.77;13.67;;;1.80;99.90;;;;;;5032220;28;20428;-76
2021/11/06 05:39:04;;;;;;;17.80;12.33;;;1.80;99.90;;;;;;5032345;28;20045;-75
2021/11/06 05:41:29;;;;;;;18.13;12.33;;;1.80;99.90;;;;;;5031225;28;20079;-76
2021/11/06 05:43:55;;;;;;;23.03;12.13;;;1.70;99.90;;;;;;5032324;28;20026;-76
2021/11/06 05:46:21;;;;;;;17.67;11.97;;;1.70;99.90;;;;;;5032370;28;20022;-77
2021/11/06 05:48:47;;;;;;;20.53;12.77;;;1.60;99.90;;;;;;5031312;28;20347;-77
2021/11/06 05:51:12;;;;;;;16.00;12.30;;;1.60;99.90;;;;;;5031344;28;20071;-76
2021/11/06 05:53:38;;;;;;;16.30;11.13;;;1.60;99.90;;;;;;5043924;28;20093;-77
2021/11/06 05:56:03;;;;;;;15.53;11.33;;;1.60;99.90;;;;;;5032363;28;20167;-77
2021/11/06 05:58:29;;;;;;;16.10;10.63;;;1.50;99.90;;;;;;5032166;28;20175;-77
2021/11/06 06:00:54;;;;;;;14.73;10.10;;;1.50;99.90;;;;;;5031822;28;20030;-78
2021/11/06 06:03:20;;;;;;;14.33;10.70;;;1.40;99.90;;;;;;5032133;28;20036;-78
2021/11/06 06:05:45;;;;;;;16.07;11.13;;;1.40;99.90;;;;;;5031637;28;20031;-77
2021/11/06 06:08:11;;;;;;;19.10;12.17;;;1.40;99.90;;;;;;5029397;28;20140;-78
2021/11/06 06:10:37;;;;;;;20.63;12.03;;;1.30;99.90;;;;;;5031964;28;20029;-78
2021/11/06 06:13:05;;;;;;;20.50;12.90;;;1.30;99.90;;;;;;5043743;28;20033;-78
2021/11/06 06:15:30;;;;;;;24.57;12.77;;;1.30;99.90;;;;;;5032167;28;20033;-78
2021/11/06 06:17:56;;;;;;;23.60;13.00;;;1.20;99.90;;;;;;5032462;28;20371;-78
2021/11/06 06:20:22;;;;;;;18.63;12.40;;;1.30;99.90;;;;;;5031534;28;20030;-78
2021/11/06 06:22:47;;;;;;;19.63;12.23;;;1.30;99.90;;;;;;5032239;28;20370;-77
2021/11/06 06:25:14;;;;;;;24.27;13.33;;;1.20;99.90;;;;;;5031973;28;20033;-78
2021/11/06 06:27:41;;;;;;;32.80;15.77;;;1.30;99.90;;;;;;5031013;28;20029;-78
2021/11/06 06:30:09;;;;;;;30.07;16.70;;;1.20;99.90;;;;;;5032122;28;20044;-78
2021/11/06 06:32:36;;;;;;;29.63;16.03;;;1.20;99.90;;;;;;5032065;28;20104;-78
2021/11/06 06:35:02;;;;;;;40.33;21.13;;;1.30;99.90;;;;;;5031754;28;20032;-78
2021/11/06 06:37:28;;;;;;;71.67;20.67;;;1.30;99.90;;;;;;5030526;28;20025;-81
2021/11/06 06:39:54;;;;;;;83.30;23.97;;;1.30;99.90;;;;;;5028069;28;20050;-82
2021/11/06 06:42:20;;;;;;;44.30;23.00;;;1.30;99.90;;;;;;5029538;28;20074;-82
2021/11/06 06:44:46;;;;;;;72.10;22.33;;;1.30;99.90;;;;;;5028077;28;20033;-83
2021/11/06 06:47:13;;;;;;;44.07;21.50;;;1.30;99.90;;;;;;5028284;28;20037;-82
2021/11/06 06:49:39;;;;;;;41.93;20.60;;;1.30;99.90;;;;;;5029546;28;20028;-79
2021/11/06 06:52:05;;;;;;;40.93;21.33;;;1.30;99.90;;;;;;5031511;28;20021;-79
2021/11/06 06:54:31;;;;;;;40.33;21.60;;;1.30;99.90;;;;;;5030211;28;20033;-79
2021/11/06 06:56:56;;;;;;;31.43;18.43;;;1.30;99.90;;;;;;5031214;28;20025;-78
2021/11/06 06:59:22;;;;;;;34.47;17.97;;;1.30;99.90;;;;;;5031409;28;20102;-79
2021/11/06 07:01:48;;;;;;;26.63;15.30;;;1.30;99.90;;;;;;5030054;28;20029;-79
2021/11/06 07:04:14;;;;;;;29.53;15.80;;;1.40;99.90;;;;;;5031449;28;20036;-78
2021/11/06 07:06:40;;;;;;;25.40;16.23;;;1.40;99.90;;;;;;5031630;28;20029;-79
2021/11/06 07:09:06;;;;;;;20.87;14.23;;;1.40;99.90;;;;;;5029688;28;20030;-79
2021/11/06 07:11:31;;;;;;;21.87;15.03;;;1.40;99.90;;;;;;5030116;28;20026;-79
2021/11/06 07:13:57;;;;;;;20.93;13.93;;;1.50;99.90;;;;;;5031315;28;20021;-79
2021/11/06 07:16:23;;;;;;;22.67;14.67;;;1.50;99.90;;;;;;5030985;28;20096;-79
2021/11/06 07:18:49;;;;;;;17.97;13.43;;;1.50;99.90;;;;;;5029813;28;20462;-79
2021/11/06 07:21:14;;;;;;;18.63;13.43;;;1.50;99.90;;;;;;5031166;28;20465;-79
2021/11/06 07:23:40;;;;;;;16.37;11.90;;;1.60;99.90;;;;;;5031092;28;20382;-79
2021/11/06 07:26:05;;;;;;;14.80;9.97;;;1.60;99.90;;;;;;5030968;28;20033;-79
2021/11/06 07:28:31;;;;;;;13.17;9.43;;;1.60;99.90;;;;;;5030745;28;20022;-79
2021/11/06 07:30:58;;;;;;;10.40;8.30;;;1.70;99.90;;;;;;5030937;28;20022;-79
2021/11/06 07:33:24;;;;;;;8.43;7.10;;;1.70;99.90;;;;;;5034616;28;20478;-79
2021/11/06 07:35:49;;;;;;;8.13;6.60;;;1.70;99.90;;;;;;5032300;28;20028;-77
2021/11/06 07:38:15;;;;;;;8.73;6.63;;;1.80;99.90;;;;;;5033225;28;20437;-77
2021/11/06 07:40:41;;;;;;;8.70;6.57;;;1.90;99.90;;;;;;5032121;28;20052;-78
2021/11/06 07:43:06;;;;;;;8.47;6.60;;;1.90;99.90;;;;;;5034181;28;20108;-78
2021/11/06 07:45:35;;;;;;;7.20;6.40;;;2.00;99.90;;;;;;5033267;28;20071;-78
2021/11/06 07:48:01;;;;;;;10.07;8.07;;;2.10;99.90;;;;;;5031274;28;20029;-78
2021/11/06 07:50:27;;;;;;;9.07;7.27;;;2.10;99.90;;;;;;5031080;28;20022;-78
2021/11/06 07:52:53;;;;;;;10.43;7.43;;;2.10;99.90;;;;;;5032500;28;20637;-79
2021/11/06 07:55:19;;;;;;;10.23;7.60;;;2.30;99.90;;;;;;5029416;28;20402;-83
2021/11/06 07:57:45;;;;;;;11.03;8.67;;;2.30;99.90;;;;;;5030304;28;20040;-83
2021/11/06 08:00:13;;;;;;;9.80;8.20;;;2.40;99.90;;;;;;5029852;28;20025;-82
2021/11/06 08:02:40;;;;;;;9.50;8.50;;;2.50;99.90;;;;;;5029088;28;20049;-78
2021/11/06 08:05:08;;;;;;;11.63;8.33;;;2.60;99.90;;;;;;5029804;28;20029;-83
2021/11/06 08:07:34;;;;;;;11.80;9.37;;;2.70;99.90;;;;;;5027409;28;20029;-83
2021/11/06 08:10:00;;;;;;;10.57;8.67;;;2.80;99.90;;;;;;5029538;28;20472;-78
2021/11/06 08:12:27;;;;;;;11.07;9.00;;;2.90;99.90;;;;;;5031573;28;20041;-78
2021/11/06 08:14:53;;;;;;;11.63;8.40;;;3.10;99.90;;;;;;5031230;28;20022;-78
2021/11/06 08:17:18;;;;;;;10.03;8.20;;;3.20;99.90;;;;;;5031399;28;20025;-78
2021/11/06 08:19:44;;;;;;;11.20;8.23;;;3.30;99.90;;;;;;5031293;28;20025;-78
2021/11/06 08:22:10;;;;;;;11.70;8.67;;;3.40;99.90;;;;;;5015888;28;20025;-78
2021/11/06 08:24:37;;;;;;;12.23;7.77;;;3.60;99.90;;;;;;5029907;28;20485;-79
2021/11/06 08:27:03;;;;;;;11.90;7.70;;;3.70;99.90;;;;;;5027928;28;20079;-79
2021/11/06 08:29:28;;;;;;;10.77;7.67;;;3.70;99.90;;;;;;5031713;28;20029;-78
2021/11/06 08:31:58;;;;;;;12.07;8.37;;;3.80;99.90;;;;;;5032488;28;20408;-79
2021/11/06 08:34:24;;;;;;;11.17;8.10;;;3.90;99.90;;;;;;5032925;28;20028;-79
2021/11/06 08:36:50;;;;;;;10.50;8.20;;;4.00;99.90;;;;;;5032675;28;20195;-79
2021/11/06 08:39:18;;;;;;;11.63;9.03;;;4.10;99.90;;;;;;5032483;28;20144;-79
2021/11/06 08:41:44;;;;;;;10.57;8.00;;;4.20;99.90;;;;;;5018621;28;20021;-78
2021/11/06 08:44:10;;;;;;;10.37;7.37;;;4.30;99.90;;;;;;5032324;28;20084;-79
2021/11/06 08:46:36;;;;;;;11.13;6.90;;;4.50;99.90;;;;;;5031914;28;20033;-78
2021/11/06 08:49:01;;;;;;;9.77;6.90;;;4.70;99.90;;;;;;5032474;28;20025;-79
2021/11/06 08:51:27;;;;;;;8.10;6.20;;;4.80;99.90;;;;;;5031405;28;20028;-79
2021/11/06 08:53:53;;;;;;;11.33;6.03;;;4.90;99.90;;;;;;5032183;28;20112;-78
2021/11/06 08:56:18;;;;;;;9.93;6.00;;;5.00;99.90;;;;;;5031618;28;20033;-79
2021/11/06 08:58:44;;;;;;;8.60;6.17;;;5.10;99.90;;;;;;5031583;28;20425;-79
2021/11/06 09:01:10;;;;;;;8.73;6.60;;;5.20;99.90;;;;;;5031806;28;20529;-79
2021/11/06 09:03:36;;;;;;;8.73;6.57;;;5.30;99.90;;;;;;5025899;28;20032;-80
2021/11/06 09:06:02;;;;;;;7.73;5.87;;;5.40;99.90;;;;;;5030835;28;20143;-79
2021/11/06 09:08:33;;;;;;;6.80;5.63;;;5.50;99.90;;;;;;5030713;28;20035;-79
2021/11/06 09:11:02;;;;;;;7.03;5.10;;;5.60;99.90;;;;;;5031461;28;20022;-80
2021/11/06 09:13:28;;;;;;;9.90;6.20;;;5.60;99.90;;;;;;5031112;28;20030;-80
2021/11/06 09:15:54;;;;;;;9.27;6.77;;;5.60;99.90;;;;;;5031020;28;20022;-80
2021/11/06 09:18:20;;;;;;;9.23;6.57;;;5.70;99.90;;;;;;5031401;28;20139;-79
2021/11/06 09:20:46;;;;;;;10.97;8.33;;;5.80;99.90;;;;;;5031445;28;20021;-79
2021/11/06 09:23:12;;;;;;;13.80;9.80;;;5.80;99.90;;;;;;5031654;28;20047;-79
2021/11/06 09:25:38;;;;;;;14.40;11.03;;;5.90;99.90;;;;;;5031705;28;20033;-79
2021/11/06 09:28:04;;;;;;;22.50;15.63;;;5.90;99.90;;;;;;5031352;28;20025;-79
2021/11/06 09:30:30;;;;;;;16.17;12.27;;;6.00;99.90;;;;;;5030188;28;20029;-78
2021/11/06 09:32:56;;;;;;;18.90;14.30;;;6.10;99.90;;;;;;5031401;28;20485;-78
2021/11/06 09:35:21;;;;;;;16.53;12.07;;;6.10;99.90;;;;;;5031084;28;20041;-78
2021/11/06 09:37:48;;;;;;;43.37;27.23;;;6.20;99.90;;;;;;5030264;28;20029;-78
2021/11/06 09:40:14;;;;;;;16.47;12.17;;;6.30;99.90;;;;;;5031500;28;20141;-78
2021/11/06 09:42:41;;;;;;;21.17;13.47;;;6.30;99.90;;;;;;5031592;28;20034;-78
2021/11/06 09:45:09;;;;;;;22.47;16.03;;;6.40;99.90;;;;;;5031604;28;20017;-78
2021/11/06 09:47:34;;;;;;;20.03;13.23;;;6.50;99.90;;;;;;5031773;28;20026;-79
2021/11/06 09:50:00;;;;;;;19.20;14.13;;;6.50;99.90;;;;;;5030856;28;20032;-78
2021/11/06 09:52:26;;;;;;;35.97;23.50;;;6.60;99.90;;;;;;5031031;28;20151;-78
2021/11/06 09:54:52;;;;;;;18.87;14.90;;;6.80;99.90;;;;;;5030445;28;20112;-80
2021/11/06 09:57:17;;;;;;;25.13;17.00;;;6.90;99.90;;;;;;5031366;28;20104;-78
2021/11/06 09:59:43;;;;;;;19.90;14.43;;;7.00;99.90;;;;;;5030743;28;20036;-78
2021/11/06 10:02:09;;;;;;;16.43;13.07;;;7.10;99.90;;;;;;5029988;28;20036;-78
2021/11/06 10:04:35;;;;;;;19.37;13.83;;;7.30;99.90;;;;;;5029868;28;20127;-78
2021/11/06 10:07:14;;;;;;;19.37;14.60;;;7.30;99.90;;;;;;5029471;28;20029;-78
2021/11/06 10:09:40;;;;;;;17.63;13.87;;;7.30;99.90;;;;;;5030238;28;20451;-78
2021/11/06 10:12:06;;;;;;;21.30;15.53;;;7.30;99.90;;;;;;5029677;28;20139;-78
2021/11/06 10:14:33;;;;;;;18.43;14.30;;;7.20;99.90;;;;;;5030202;28;20036;-78
2021/11/06 10:17:01;;;;;;;20.07;15.30;;;7.10;99.90;;;;;;5030473;28;20065;-78
2021/11/06 10:19:46;;;;;;;53.80;34.87;;;7.10;99.90;;;;;;5025879;28;20382;-83
2021/11/06 10:22:14;;;;;;;20.80;15.93;;;7.10;99.90;;;;;;5026480;28;20069;-83
2021/11/06 10:24:44;;;;;;;19.57;16.10;;;7.10;99.90;;;;;;5024599;28;20133;-83
2021/11/06 10:27:23;;;;;;;22.07;16.20;;;7.20;99.90;;;;;;5025973;28;20709;-83
2021/11/06 10:30:16;;;;;;;24.33;17.23;;;7.30;99.90;;;;;;5026467;28;20028;-83
2021/11/06 10:32:54;;;;;;;28.27;22.47;;;7.40;99.90;;;;;;5026028;28;20021;-83
2021/11/06 10:35:25;;;;;;;19.27;14.33;;;7.60;99.90;;;;;;5026092;28;20033;-83
2021/11/06 10:38:07;;;;;;;16.97;13.90;;;7.90;99.90;;;;;;5026005;28;20053;-83
2021/11/06 10:40:40;;;;;;;19.10;13.60;;;7.90;99.90;;;;;;5026223;28;20390;-83
2021/11/06 10:43:07;;;;;;;18.00;13.83;;;7.90;99.90;;;;;;5026149;28;20022;-83
2021/11/06 10:45:36;;;;;;;18.23;14.70;;;8.00;99.90;;;;;;5027390;28;20025;-79
2021/11/06 10:48:11;;;;;;;18.73;13.70;;;8.00;99.90;;;;;;5030230;28;20077;-80
2021/11/06 10:50:44;;;;;;;21.23;14.30;;;8.20;99.90;;;;;;5030671;28;20017;-79
2021/11/06 10:53:11;;;;;;;15.73;13.27;;;8.40;99.90;;;;;;5030503;28;20028;-79
2021/11/06 10:55:39;;;;;;;16.10;12.90;;;8.40;99.90;;;;;;5030889;28;20360;-78
2021/11/06 10:58:20;;;;;;;18.10;13.57;;;8.50;99.90;;;;;;5028661;28;20044;-77
2021/11/06 11:01:08;;;;;;;17.03;12.63;;;8.60;99.90;;;;;;5029012;28;20025;-78
2021/11/06 11:03:38;;;;;;;15.10;11.33;;;8.80;99.90;;;;;;5030389;28;20024;-79
2021/11/06 11:06:12;;;;;;;19.00;14.23;;;9.00;99.90;;;;;;5033032;28;20743;-78
2021/11/06 11:08:48;;;;;;;12.57;10.13;;;9.20;99.90;;;;;;5034404;28;20083;-79
2021/11/06 11:11:19;;;;;;;12.00;9.90;;;9.20;99.90;;;;;;5033781;28;20112;-82
2021/11/06 11:13:53;;;;;;;13.27;10.63;;;9.10;99.90;;;;;;5029945;28;20434;-83
2021/11/06 11:16:20;;;;;;;12.45;10.38;;;9.00;99.90;;;;;;5030255;28;20036;-82
2021/11/06 11:18:48;;;;;;;17.10;12.93;;;9.00;99.90;;;;;;5034148;28;20367;-79
2021/11/06 11:21:27;;;;;;;16.03;12.63;;;9.20;99.90;;;;;;5034494;28;20033;-79
2021/11/06 11:23:57;;;;;;;14.47;10.03;;;9.30;99.90;;;;;;5033180;28;20314;-79
2021/11/06 11:26:26;;;;;;;20.70;13.43;;;9.40;99.90;;;;;;5028110;28;20036;-79
2021/11/06 11:28:53;;;;;;;18.00;12.27;;;9.40;99.90;;;;;;5030496;28;20022;-79
2021/11/06 11:31:23;;;;;;;14.17;11.33;;;9.50;99.90;;;;;;5033701;28;20041;-79
2021/11/06 11:33:50;;;;;;;16.87;13.67;;;9.50;99.90;;;;;;5034236;28;20040;-79
2021/11/06 11:36:19;;;;;;;14.97;12.50;;;9.50;99.90;;;;;;5033918;28;20141;-79
2021/11/06 11:38:45;;;;;;;15.63;12.73;;;9.40;99.90;;;;;;5033565;28;20529;-79
2021/11/06 11:41:25;;;;;;;16.47;12.43;;;9.40;99.90;;;;;;5034277;28;20053;-78
2021/11/06 11:43:50;;;;;;;15.33;11.70;;;9.50;99.90;;;;;;5034354;28;20021;-79
2021/11/06 11:46:46;;;;;;;15.67;11.60;;;9.50;99.90;;;;;;5032256;28;20040;-78
2021/11/06 11:49:12;;;;;;;;;;;9.40;99.90;;;;;;5031951;28;20060;-78
2021/11/06 11:51:38;;;;;;;15.97;12.10;;;9.30;99.90;;;;;;5031407;28;19994;-78
2021/11/06 11:54:07;;;;;;;16.23;11.53;;;9.20;99.90;;;;;;5030148;28;20500;-78
2021/11/06 11:56:36;;;;;;;16.20;11.13;;;9.10;99.90;;;;;;5030000;28;20108;-78
2021/11/06 11:59:03;;;;;;;14.43;11.50;;;8.90;99.90;;;;;;5028836;28;20114;-77
2021/11/06 12:01:29;;;;;;;14.20;11.93;;;8.70;99.90;;;;;;5029832;28;20097;-82
2021/11/06 12:03:58;;;;;;;13.47;10.03;;;8.60;99.90;;;;;;5028941;28;20151;-82
2021/11/06 12:06:30;;;;;;;13.77;10.13;;;8.50;99.90;;;;;;5028809;28;20029;-82
2021/11/06 12:09:11;;;;;;;13.07;10.80;;;8.40;99.90;;;;;;5013924;28;20108;-82
2021/11/06 12:12:00;;;;;;;13.93;10.90;;;8.40;99.90;;;;;;5029006;28;20026;-80
2021/11/06 12:14:34;;;;;;;17.07;12.07;;;8.60;99.90;;;;;;5029330;28;20022;-81
2021/11/06 12:17:10;;;;;;;11.73;9.60;;;8.80;99.90;;;;;;5028260;28;20036;-82
2021/11/06 12:19:40;;;;;;;15.33;10.87;;;9.00;99.90;;;;;;5028807;28;20026;-82
2021/11/06 12:22:18;;;;;;;13.90;10.63;;;9.20;99.90;;;;;;5028488;28;20068;-82
2021/11/06 12:24:47;;;;;;;18.37;11.63;;;9.60;99.90;;;;;;5029025;28;20661;-82
2021/11/06 12:27:15;;;;;;;15.77;12.13;;;9.80;99.90;;;;;;5028583;28;20026;-81
2021/11/06 12:29:54;;;;;;;17.10;12.80;;;9.90;99.90;;;;;;5029294;28;20132;-82
2021/11/06 12:32:26;;;;;;;12.97;10.00;;;9.80;99.90;;;;;;5027591;28;20034;-82
2021/11/06 12:34:56;;;;;;;12.53;9.70;;;9.70;99.90;;;;;;5029021;28;20365;-82
2021/11/06 12:37:40;;;;;;;11.93;9.77;;;9.50;99.90;;;;;;5028748;28;20037;-82
2021/11/06 12:40:14;;;;;;;11.77;9.07;;;9.20;99.90;;;;;;5015379;28;20053;-82
2021/11/06 12:42:42;;;;;;;10.52;8.93;;;9.00;99.90;;;;;;5030296;28;20043;-82